Time;durP1;ratioP1;P1;durP2;ratioP2;P2;SDS_P1;SDS_P2;PMS_P1;PMS_P2;Temp;Humidity;BMP_temperature;BMP_pressure;BME280_temperature;BME280_humidity;BME280_pressure;Samples;Min_cycle;Max_cycle;Signal;HPM_P1;HPM_P2
2023/08/28 00:00:23;;;;;;;1.95;1.40;;;;;;;15.31;77.15;100398.75;7415945;19;20550;-75
2023/08/28 00:02:52;;;;;;;2.00;1.52;;;;;;;15.38;77.35;100425.78;7413966;19;20019;-75
2023/08/28 00:05:20;;;;;;;1.65;1.33;;;;;;;15.32;77.36;100434.00;7413250;19;20007;-75
2023/08/28 00:07:49;;;;;;;3.15;1.27;;;;;;;15.28;77.23;100437.72;7413740;19;20379;-75
2023/08/28 00:10:18;;;;;;;3.55;1.50;;;;;;;15.21;77.22;100437.13;7413198;19;20035;-73
2023/08/28 00:12:55;;;;;;;1.88;1.30;;;;;;;15.12;76.96;100433.13;7414873;19;20015;-75
2023/08/28 00:15:24;;;;;;;3.22;1.55;;;;;;;15.01;77.10;100418.69;7419385;19;20026;-74
2023/08/28 00:17:53;;;;;;;1.83;1.33;;;;;;;15.06;77.08;100429.91;7415435;19;20038;-75
2023/08/28 00:20:22;;;;;;;4.43;1.48;;;;;;;14.99;77.24;100443.41;7415666;19;20007;-73
2023/08/28 00:22:51;;;;;;;2.58;1.30;;;;;;;14.95;77.00;100438.31;7409982;19;20078;-75
2023/08/28 00:25:19;;;;;;;2.65;1.13;;;;;;;14.77;77.38;100422.38;7411406;19;20010;-74
2023/08/28 00:27:48;;;;;;;2.05;1.20;;;;;;;14.81;77.39;100439.78;7416690;19;20022;-75
2023/08/28 00:30:19;;;;;;;1.63;1.35;;;;;;;14.79;77.21;100446.91;7415078;19;20038;-73
2023/08/28 00:32:48;;;;;;;1.45;1.13;;;;;;;14.47;77.11;100412.19;7416373;19;20028;-76
2023/08/28 00:35:17;;;;;;;1.98;1.27;;;;;;;14.68;77.11;100451.81;7413967;19;20014;-75
2023/08/28 00:37:46;;;;;;;2.58;1.38;;;;;;;14.62;77.29;100449.41;7412047;19;20026;-73
2023/08/28 00:40:16;;;;;;;1.30;1.08;;;;;;;14.54;77.16;100455.00;7412287;19;20014;-73
2023/08/28 00:42:45;;;;;;;2.08;1.33;;;;;;;14.37;77.40;100433.75;7412723;19;20079;-76
2023/08/28 00:45:13;;;;;;;6.40;1.70;;;;;;;14.33;77.43;100446.22;7410476;19;20014;-75
2023/08/28 00:47:46;;;;;;;1.90;1.20;;;;;;;14.41;77.44;100462.59;7411730;19;20379;-76
2023/08/28 00:50:15;;;;;;;2.17;1.25;;;;;;;13.95;77.66;100398.56;7415122;19;20006;-75
2023/08/28 00:52:44;;;;;;;2.28;1.30;;;;;;;14.27;77.67;100463.19;7415951;19;20010;-75
2023/08/28 00:55:13;;;;;;;2.97;1.35;;;;;;;14.21;77.58;100455.53;7411419;19;20010;-75
2023/08/28 00:57:42;;;;;;;1.10;1.00;;;;;;;14.25;77.61;100467.66;7411467;19;20007;-74
2023/08/28 01:00:12;;;;;;;5.32;1.40;;;;;;;14.02;77.77;100436.97;7416093;19;20019;-75
2023/08/28 01:02:44;;;;;;;2.58;1.40;;;;;;;14.13;77.89;100471.66;7411146;19;20017;-75
2023/08/28 01:05:13;;;;;;;1.55;1.33;;;;;;;14.07;77.86;100479.84;7408013;19;20014;-75
2023/08/28 01:08:00;;;;;;;1.35;1.20;;;;;;;14.04;78.20;100474.69;7412262;19;20059;-75
2023/08/28 01:10:36;;;;;;;1.67;1.38;;;;;;;13.96;77.91;100474.13;7413170;19;20006;-74
2023/08/28 01:13:12;;;;;;;2.67;1.20;;;;;;;13.96;78.30;100482.03;7408795;19;20700;-66
2023/08/28 01:15:42;;;;;;;1.45;1.17;;;;;;;13.92;78.10;100485.72;7395346;19;20033;-66
2023/08/28 01:18:20;;;;;;;2.13;1.33;;;;;;;13.89;78.33;100481.44;7397929;19;20024;-66
2023/08/28 01:20:49;;;;;;;3.25;1.40;;;;;;;13.85;78.17;100474.56;7397790;19;20035;-66
2023/08/28 01:23:25;;;;;;;2.53;1.30;;;;;;;13.82;78.42;100485.22;7395959;19;20015;-66
2023/08/28 01:25:57;;;;;;;1.70;1.50;;;;;;;13.78;78.36;100476.56;7397334;19;20010;-67
2023/08/28 01:28:27;;;;;;;1.80;1.23;;;;;;;13.75;78.69;100479.34;7396836;19;20003;-66
2023/08/28 01:30:56;;;;;;;2.53;1.17;;;;;;;13.71;78.72;100477.75;7396776;19;20011;-67
2023/08/28 01:33:24;;;;;;;1.50;1.25;;;;;;;13.67;78.98;100477.00;7396198;19;20010;-66
2023/08/28 01:36:00;;;;;;;2.33;1.23;;;;;;;13.66;78.93;100482.31;7396799;19;20090;-67
2023/08/28 01:38:35;;;;;;;1.70;1.27;;;;;;;13.62;78.96;100484.25;7397220;19;20015;-66
2023/08/28 01:41:10;;;;;;;1.15;1.05;;;;;;;13.59;79.03;100486.13;7397128;19;20074;-66
2023/08/28 01:43:40;;;;;;;1.73;1.60;;;;;;;13.56;79.05;100486.22;7394809;19;20031;-67
2023/08/28 01:46:10;;;;;;;1.52;1.33;;;;;;;13.54;79.09;100485.47;7398017;19;20019;-68
2023/08/28 01:48:43;;;;;;;2.05;1.35;;;;;;;13.51;79.20;100481.16;7398159;19;20010;-67
2023/08/28 01:51:11;;;;;;;2.57;1.60;;;;;;;13.48;79.25;100483.91;7397959;19;20014;-67
2023/08/28 01:53:40;;;;;;;2.15;1.40;;;;;;;13.46;79.49;100472.56;7395044;19;20449;-66
2023/08/28 01:56:29;;;;;;;2.05;1.50;;;;;;;13.43;79.50;100476.16;7396150;19;20019;-66
2023/08/28 01:58:58;;;;;;;1.58;1.42;;;;;;;13.41;79.59;100470.09;7396186;19;20010;-67
2023/08/28 02:01:28;;;;;;;2.95;1.65;;;;;;;13.39;79.71;100471.09;7395798;19;20027;-67
2023/08/28 02:03:57;;;;;;;2.15;1.52;;;;;;;13.35;80.00;100472.94;7394180;19;20010;-67
2023/08/28 02:06:25;;;;;;;2.35;1.58;;;;;;;13.32;80.05;100476.53;7395933;19;20089;-67
2023/08/28 02:08:54;;;;;;;2.30;1.45;;;;;;;13.29;79.97;100470.53;7394201;19;20364;-67
2023/08/28 02:11:23;;;;;;;2.03;1.77;;;;;;;13.27;80.27;100467.06;7395712;19;20027;-66
2023/08/28 02:13:54;;;;;;;2.88;1.65;;;;;;;13.23;80.33;100473.38;7393228;19;20471;-67
2023/08/28 02:16:22;;;;;;;2.28;1.50;;;;;;;13.20;80.45;100463.81;7394361;19;20006;-67
2023/08/28 02:18:51;;;;;;;3.20;1.80;;;;;;;13.17;80.49;100471.84;7395213;19;20018;-67
2023/08/28 02:21:19;;;;;;;2.05;1.85;;;;;;;13.14;80.78;100464.03;7395558;19;20007;-67
2023/08/28 02:23:48;;;;;;;2.22;1.70;;;;;;;13.10;81.07;100465.94;7393922;19;20082;-67
2023/08/28 02:26:16;;;;;;;2.47;1.60;;;;;;;13.08;80.99;100467.78;7395027;19;20517;-66
2023/08/28 02:28:44;;;;;;;4.70;1.60;;;;;;;13.05;81.07;100478.41;7395299;19;20077;-66
2023/08/28 02:31:16;;;;;;;1.90;1.70;;;;;;;13.01;81.45;100482.94;7394942;19;20074;-67
2023/08/28 02:33:44;;;;;;;3.03;1.92;;;;;;;12.97;81.29;100477.84;7393339;19;20086;-67
2023/08/28 02:36:13;;;;;;;4.88;1.80;;;;;;;12.93;81.48;100490.25;7394628;19;20426;-66
2023/08/28 02:38:41;;;;;;;2.60;1.77;;;;;;;12.89;81.42;100486.03;7394518;19;20082;-67
2023/08/28 02:41:10;;;;;;;1.83;1.52;;;;;;;12.87;81.69;100487.84;7394535;19;20364;-67
2023/08/28 02:43:39;;;;;;;2.47;1.70;;;;;;;12.84;81.74;100495.84;7393050;19;20421;-67
2023/08/28 02:46:08;;;;;;;4.03;1.90;;;;;;;12.80;81.65;100497.72;7392771;19;20015;-67
2023/08/28 02:48:39;;;;;;;3.00;2.08;;;;;;;12.77;81.84;100499.59;7392515;19;20550;-67
2023/08/28 02:51:07;;;;;;;3.63;1.70;;;;;;;12.75;82.00;100514.59;7394732;19;20427;-67
2023/08/28 02:53:36;;;;;;;3.40;1.60;;;;;;;12.70;81.96;100520.88;7392617;19;20027;-67
2023/08/28 02:56:29;;;;;;;1.88;1.63;;;;;;;12.66;82.15;100528.91;7394576;19;20091;-67
2023/08/28 02:58:58;;;;;;;2.78;1.73;;;;;;;12.63;82.13;100529.03;7393993;19;20027;-67
2023/08/28 03:01:27;;;;;;;1.55;1.45;;;;;;;12.57;82.25;100529.25;7394371;19;20014;-67
2023/08/28 03:03:58;;;;;;;3.33;2.15;;;;;;;12.53;82.29;100531.09;7392575;19;20018;-67
2023/08/28 03:06:26;;;;;;;2.00;1.50;;;;;;;12.47;82.39;100528.69;7394482;19;20019;-67
2023/08/28 03:08:57;;;;;;;3.40;1.40;;;;;;;12.44;82.59;100524.38;7393778;19;20031;-67
2023/08/28 03:11:26;;;;;;;2.08;1.80;;;;;;;12.41;82.41;100534.13;7393474;19;20368;-67
2023/08/28 03:13:54;;;;;;;5.38;2.00;;;;;;;12.37;82.56;100534.25;7392132;19;20021;-66
2023/08/28 03:16:23;;;;;;;1.83;1.45;;;;;;;12.34;82.77;100522.97;7393605;19;20083;-67
2023/08/28 03:18:52;;;;;;;1.83;1.63;;;;;;;12.31;82.79;100536.19;7393921;19;20014;-67
2023/08/28 03:21:23;;;;;;;1.92;1.50;;;;;;;12.29;82.97;100527.53;7401346;19;20085;-67
2023/08/28 03:23:52;;;;;;;2.63;2.00;;;;;;;12.28;82.83;100541.56;7399568;19;20081;-67
2023/08/28 03:26:21;;;;;;;3.22;1.83;;;;;;;12.26;82.87;100546.88;7401118;19;20018;-66
2023/08/28 03:28:49;;;;;;;2.30;1.63;;;;;;;12.24;83.03;100547.84;7400659;19;20373;-67
2023/08/28 03:31:18;;;;;;;4.00;2.10;;;;;;;12.24;83.13;100553.97;7400929;19;20010;-67
2023/08/28 03:33:46;;;;;;;6.57;2.80;;;;;;;12.24;83.17;100556.59;7399333;19;20077;-67
2023/08/28 03:36:15;;;;;;;4.05;2.97;;;;;;;12.22;83.21;100559.28;7400221;19;20431;-67
2023/08/28 03:38:46;;;;;;;36.72;22.52;;;;;;;12.23;83.39;100568.00;7399954;19;20081;-67
2023/08/28 03:41:14;;;;;;;7.05;4.78;;;;;;;12.24;83.36;100571.53;7397673;19;20351;-67
2023/08/28 03:43:43;;;;;;;4.70;2.85;;;;;;;12.25;83.33;100570.63;7398908;19;20078;-67
2023/08/28 03:46:11;;;;;;;4.25;2.28;;;;;;;12.25;83.50;100570.63;7400100;19;20033;-67
2023/08/28 03:48:40;;;;;;;3.58;2.20;;;;;;;12.23;83.33;100568.00;7400335;19;20540;-67
2023/08/28 03:51:08;;;;;;;2.45;2.00;;;;;;;12.21;83.40;100565.44;7397514;19;20498;-67
2023/08/28 03:53:37;;;;;;;5.30;2.75;;;;;;;12.21;83.43;100565.44;7398969;19;20023;-67
2023/08/28 03:56:08;;;;;;;2.70;2.20;;;;;;;12.20;83.56;100568.97;7399968;19;20015;-67
2023/08/28 03:58:36;;;;;;;3.65;2.58;;;;;;;12.20;83.50;100573.38;7400399;19;20010;-66
2023/08/28 04:01:05;;;;;;;4.97;2.30;;;;;;;12.16;84.01;100562.09;7400221;19;20018;-67
2023/08/28 04:03:34;;;;;;;3.83;2.40;;;;;;;12.13;83.80;100562.19;7398823;19;20021;-67
2023/08/28 04:06:02;;;;;;;3.97;2.97;;;;;;;12.11;84.07;100566.63;7399514;19;20497;-66
2023/08/28 04:08:31;;;;;;;2.72;2.50;;;;;;;12.10;84.05;100559.66;7399332;19;20554;-66
2023/08/28 04:11:01;;;;;;;4.88;2.40;;;;;;;12.10;84.21;100556.19;7397553;19;20011;-66
2023/08/28 04:13:32;;;;;;;5.63;3.33;;;;;;;12.09;84.10;100550.03;7397476;19;20417;-66
2023/08/28 04:16:01;;;;;;;3.00;2.58;;;;;;;12.06;84.15;100550.16;7396172;19;20485;-67
2023/08/28 04:18:29;;;;;;;3.15;2.63;;;;;;;12.09;84.07;100542.16;7396903;19;20082;-67
2023/08/28 04:20:58;;;;;;;43.75;24.90;;;;;;;12.09;84.29;100531.63;7398536;19;20498;-67
2023/08/28 04:23:26;;;;;;;7.38;5.88;;;;;;;12.10;84.30;100535.13;7398013;19;20028;-67
2023/08/28 04:25:55;;;;;;;4.85;4.40;;;;;;;12.11;84.36;100531.59;7398936;19;20011;-67
2023/08/28 04:28:24;;;;;;;4.78;3.45;;;;;;;12.12;84.40;100525.41;7399103;19;20010;-67
2023/08/28 04:30:55;;;;;;;4.35;3.35;;;;;;;12.12;84.57;100528.03;7397719;19;20078;-67
2023/08/28 04:33:23;;;;;;;4.32;3.65;;;;;;;12.13;84.77;100527.13;7397922;19;20032;-67
2023/08/28 04:35:52;;;;;;;2.78;2.58;;;;;;;12.13;84.79;100528.00;7399096;19;20014;-67
2023/08/28 04:38:20;;;;;;;3.20;2.78;;;;;;;12.15;84.87;100522.69;7398607;19;20074;-66
2023/08/28 04:40:49;;;;;;;5.03;3.55;;;;;;;12.16;84.73;100521.78;7397699;19;20494;-67
2023/08/28 04:43:17;;;;;;;4.32;3.03;;;;;;;12.17;84.98;100521.75;7397231;19;20023;-67
2023/08/28 04:45:46;;;;;;;3.38;2.70;;;;;;;12.19;84.81;100519.06;7397606;19;20514;-66
2023/08/28 04:48:17;;;;;;;3.90;2.78;;;;;;;12.19;84.82;100524.31;7395285;19;20074;-66
2023/08/28 04:50:45;;;;;;;3.88;2.80;;;;;;;12.20;85.02;100528.66;7397754;19;20421;-65
2023/08/28 04:53:14;;;;;;;4.53;3.20;;;;;;;12.19;84.94;100538.31;7395864;19;20118;-68
2023/08/28 04:55:43;;;;;;;4.22;2.97;;;;;;;12.20;85.08;100534.78;7395634;19;20081;-66
2023/08/28 04:58:12;;;;;;;3.63;3.20;;;;;;;12.19;85.26;100538.31;7397305;19;20074;-66
2023/08/28 05:00:40;;;;;;;4.63;3.20;;;;;;;12.25;85.28;100539.06;7394906;19;20014;-65
2023/08/28 05:03:09;;;;;;;4.88;3.38;;;;;;;12.26;85.12;100544.25;7394885;19;20091;-67
2023/08/28 05:05:40;;;;;;;4.53;3.00;;;;;;;12.28;85.19;100537.16;7396275;19;20027;-68
2023/08/28 05:08:09;;;;;;;4.90;3.03;;;;;;;12.30;85.20;100537.13;7396637;19;20119;-68
2023/08/28 05:10:37;;;;;;;3.88;3.38;;;;;;;12.32;85.15;100530.03;7395100;19;20105;-68
2023/08/28 05:13:06;;;;;;;4.72;3.28;;;;;;;12.31;85.30;100525.69;7396418;19;20014;-68
2023/08/28 05:15:35;;;;;;;4.55;3.33;;;;;;;12.33;85.28;100523.88;7394270;19;20027;-67
2023/08/28 05:18:03;;;;;;;4.55;3.72;;;;;;;12.34;85.11;100513.28;7396192;19;20014;-69
2023/08/28 05:20:32;;;;;;;4.22;3.00;;;;;;;12.37;85.41;100515.84;7393930;19;20011;-68
2023/08/28 05:23:03;;;;;;;3.95;3.13;;;;;;;12.41;85.08;100511.34;7395054;19;20014;-68
2023/08/28 05:25:32;;;;;;;4.35;3.20;;;;;;;12.45;85.12;100504.19;7395854;19;20485;-68
2023/08/28 05:28:01;;;;;;;11.15;3.10;;;;;;;12.50;85.00;100507.53;7395866;19;20074;-67
2023/08/28 05:30:29;;;;;;;4.18;2.97;;;;;;;12.56;85.03;100515.19;7396181;19;20078;-69
2023/08/28 05:32:58;;;;;;;2.85;2.55;;;;;;;12.61;84.81;100522.94;7395292;19;20033;-67
2023/08/28 05:35:26;;;;;;;3.58;2.80;;;;;;;12.67;84.88;100531.50;7396151;19;20027;-68
2023/08/28 05:37:55;;;;;;;3.22;2.83;;;;;;;12.73;84.82;100530.44;7396573;19;20019;-68
2023/08/28 05:40:26;;;;;;;4.35;3.15;;;;;;;12.79;84.66;100526.72;7394028;19;20023;-67
2023/08/28 05:42:55;;;;;;;7.00;3.20;;;;;;;12.85;84.54;100531.78;7393601;19;20014;-66
2023/08/28 05:45:23;;;;;;;4.10;2.92;;;;;;;12.90;84.38;100536.91;7393905;19;20022;-67
2023/08/28 05:47:52;;;;;;;3.03;2.80;;;;;;;12.95;84.21;100537.59;7396048;19;20375;-66
2023/08/28 05:50:21;;;;;;;4.32;2.92;;;;;;;13.01;84.06;100546.13;7395369;19;20077;-66
2023/08/28 05:52:50;;;;;;;9.77;3.33;;;;;;;13.09;84.19;100543.25;7394815;19;20450;-67
2023/08/28 05:55:18;;;;;;;3.53;2.65;;;;;;;13.18;83.77;100550.81;7395419;19;20521;-67
2023/08/28 05:57:56;;;;;;;3.38;2.67;;;;;;;13.28;83.53;100561.00;7395216;19;20366;-66
2023/08/28 06:00:25;;;;;;;3.53;2.58;;;;;;;13.35;83.23;100552.81;7395361;19;20021;-66
2023/08/28 06:02:54;;;;;;;2.63;2.40;;;;;;;13.41;83.01;100559.69;7393005;19;20015;-66
2023/08/28 06:05:22;;;;;;;5.25;2.42;;;;;;;13.47;82.87;100564.75;7393158;19;20332;-66
2023/08/28 06:07:51;;;;;;;3.42;2.45;;;;;;;13.54;82.81;100560.09;7394883;19;20070;-66
2023/08/28 06:10:20;;;;;;;3.88;2.60;;;;;;;13.60;82.51;100562.50;7395309;19;20074;-66
2023/08/28 06:12:49;;;;;;;3.75;2.58;;;;;;;13.64;82.31;100550.94;7394570;19;20014;-66
2023/08/28 06:15:20;;;;;;;5.25;2.72;;;;;;;13.69;82.43;100551.63;7394171;19;20018;-66
2023/08/28 06:17:49;;;;;;;5.85;2.70;;;;;;;13.75;82.04;100555.81;7393829;19;20031;-68
2023/08/28 06:20:19;;;;;;;5.03;2.58;;;;;;;13.81;81.85;100552.94;7394927;19;20534;-66
2023/08/28 06:22:47;;;;;;;5.40;2.45;;;;;;;13.85;81.65;100549.25;7395033;19;20035;-64
2023/08/28 06:25:16;;;;;;;3.15;2.85;;;;;;;13.89;81.79;100538.56;7392889;19;20545;-65
2023/08/28 06:27:44;;;;;;;4.40;2.33;;;;;;;13.93;81.46;100556.03;7394555;19;20003;-64
2023/08/28 06:30:13;;;;;;;3.88;2.67;;;;;;;13.98;81.36;100539.09;7394326;19;20015;-65
2023/08/28 06:32:45;;;;;;;3.67;2.60;;;;;;;14.04;81.33;100542.41;7393595;19;20365;-64
2023/08/28 06:35:13;;;;;;;3.50;2.80;;;;;;;14.06;80.59;100549.31;7394066;19;20006;-65
2023/08/28 06:37:42;;;;;;;5.53;2.60;;;;;;;14.10;80.59;100548.31;7394177;19;20011;-65
2023/08/28 06:40:11;;;;;;;3.33;2.40;;;;;;;14.13;80.51;100552.59;7393948;19;20519;-65
2023/08/28 06:42:40;;;;;;;3.03;2.10;;;;;;;14.18;80.48;100561.19;7393892;19;20360;-65
2023/08/28 06:45:10;;;;;;;3.30;2.13;;;;;;;14.22;80.42;100557.50;7392068;19;20397;-64
2023/08/28 06:47:38;;;;;;;2.17;1.70;;;;;;;14.26;80.30;100564.38;7393613;19;20086;-64
2023/08/28 06:50:10;;;;;;;5.57;2.15;;;;;;;14.29;80.09;100564.25;7393835;19;20510;-65
2023/08/28 06:52:46;;;;;;;5.55;2.45;;;;;;;14.34;79.83;100571.97;7392506;19;20011;-65
2023/08/28 06:55:15;;;;;;;9.55;2.10;;;;;;;14.37;79.89;100565.72;7397436;19;20478;-65
2023/08/28 06:57:43;;;;;;;3.65;1.88;;;;;;;14.39;79.58;100572.66;7401395;19;20073;-66
2023/08/28 07:00:13;;;;;;;2.65;1.70;;;;;;;14.42;79.62;100569.91;7401482;19;20074;-65
2023/08/28 07:02:42;;;;;;;4.43;1.65;;;;;;;14.45;79.45;100579.47;7398287;19;20078;-71
2023/08/28 07:05:13;;;;;;;3.92;1.52;;;;;;;14.49;78.77;100581.94;7398844;19;20006;-64
2023/08/28 07:07:41;;;;;;;4.55;2.00;;;;;;;14.54;78.53;100578.25;7401671;19;20018;-64
2023/08/28 07:10:10;;;;;;;5.15;1.70;;;;;;;14.59;78.56;100574.47;7400694;19;20078;-64
2023/08/28 07:12:39;;;;;;;2.72;1.40;;;;;;;14.66;78.20;100569.84;7400687;19;20027;-64
2023/08/28 07:15:52;;;;;;;8.07;1.60;;;;;;;14.72;76.70;100571.38;7396902;19;20081;-64
2023/08/28 07:18:21;;;;;;;2.75;1.55;;;;;;;14.79;77.28;100572.84;7400023;19;20360;-64
2023/08/28 07:20:52;;;;;;;2.50;1.60;;;;;;;14.87;76.83;100569.88;7399801;19;20014;-65
2023/08/28 07:23:20;;;;;;;5.90;1.60;;;;;;;14.95;76.69;100570.38;7399566;19;20018;-63
2023/08/28 07:25:49;;;;;;;3.75;1.13;;;;;;;15.03;76.78;100578.00;7398246;19;20082;-64
2023/08/28 07:28:17;;;;;;;4.88;1.52;;;;;;;15.10;75.96;100580.31;7400746;19;20018;-65
2023/08/28 07:30:46;;;;;;;4.15;1.27;;;;;;;15.13;74.82;100577.53;7400192;19;20014;-68
2023/08/28 07:33:14;;;;;;;4.25;1.60;;;;;;;15.17;75.47;100569.47;7399152;19;20024;-66
2023/08/28 07:35:46;;;;;;;2.88;1.50;;;;;;;15.23;75.50;100570.06;7397332;19;20086;-65
2023/08/28 07:38:17;;;;;;;2.10;1.50;;;;;;;15.30;74.70;100581.22;7401744;19;20006;-67
2023/08/28 07:40:48;;;;;;;3.88;1.60;;;;;;;15.37;74.96;100581.81;7400398;19;20033;-67
2023/08/28 07:43:16;;;;;;;4.18;1.55;;;;;;;15.44;74.63;100577.94;7398962;19;20011;-67
2023/08/28 07:45:45;;;;;;;4.32;2.47;;;;;;;15.52;74.59;100575.84;7397505;19;20090;-67
2023/08/28 07:48:14;;;;;;;4.05;1.38;;;;;;;15.58;74.48;100567.63;7399432;19;20011;-65
2023/08/28 07:50:42;;;;;;;2.60;1.30;;;;;;;15.66;74.21;100576.97;7399121;19;20074;-65
2023/08/28 07:53:11;;;;;;;2.80;1.40;;;;;;;15.72;73.89;100572.28;7398525;19;20023;-66
2023/08/28 07:55:42;;;;;;;2.33;1.30;;;;;;;15.76;72.80;100570.38;7399369;19;20014;-66
2023/08/28 07:58:11;;;;;;;4.53;1.60;;;;;;;15.77;73.15;100566.75;7399936;19;20014;-66
2023/08/28 08:00:42;;;;;;;3.25;1.40;;;;;;;15.86;73.36;100570.81;7399362;19;20007;-66
2023/08/28 08:03:11;;;;;;;6.13;2.35;;;;;;;15.95;72.95;100575.69;7398444;19;20019;-67
2023/08/28 08:05:40;;;;;;;3.42;1.30;;;;;;;15.99;72.69;100566.66;7395328;19;20014;-66
2023/08/28 08:08:08;;;;;;;3.80;1.38;;;;;;;16.04;72.54;100569.09;7396192;19;20013;-66
2023/08/28 08:10:38;;;;;;;7.38;3.42;;;;;;;16.07;72.61;100569.78;7399084;19;20066;-66
2023/08/28 08:13:09;;;;;;;2.35;1.50;;;;;;;16.13;71.92;100556.28;7398718;19;20011;-66
2023/08/28 08:15:37;;;;;;;2.25;1.65;;;;;;;16.18;72.03;100560.50;7397833;19;20018;-66
2023/08/28 08:18:07;;;;;;;3.60;0.98;;;;;;;16.20;71.78;100555.97;7398382;19;20014;-65
2023/08/28 08:20:35;;;;;;;3.53;1.48;;;;;;;16.22;71.56;100551.47;7399055;19;20015;-65
2023/08/28 08:23:04;;;;;;;3.75;1.20;;;;;;;16.24;71.49;100554.91;7398155;19;20033;-66
2023/08/28 08:25:33;;;;;;;3.42;1.20;;;;;;;16.30;71.35;100557.25;7396940;19;20019;-66
2023/08/28 08:28:02;;;;;;;3.33;1.10;;;;;;;16.37;71.32;100556.03;7398463;19;20010;-66
2023/08/28 08:30:33;;;;;;;3.65;1.38;;;;;;;16.45;70.85;100559.16;7397905;19;20434;-66
2023/08/28 08:33:02;;;;;;;3.10;1.58;;;;;;;16.52;70.70;100562.34;7398133;19;20019;-66
2023/08/28 08:35:31;;;;;;;3.42;1.20;;;;;;;16.59;70.30;100561.13;7398040;19;20429;-66
2023/08/28 08:37:59;;;;;;;4.80;1.55;;;;;;;16.69;70.06;100565.94;7397629;19;20390;-66
2023/08/28 08:40:29;;;;;;;2.95;1.45;;;;;;;16.78;69.77;100552.22;7395990;19;20027;-66
2023/08/28 08:42:57;;;;;;;3.35;1.80;;;;;;;16.87;69.55;100551.78;7397387;19;20031;-67
2023/08/28 08:45:30;;;;;;;4.00;2.15;;;;;;;16.96;69.45;100553.13;7396536;19;20019;-67
2023/08/28 08:48:03;;;;;;;2.25;1.65;;;;;;;17.03;69.05;100549.22;7404325;19;20075;-67
2023/08/28 08:50:32;;;;;;;2.97;1.87;;;;;;;17.09;69.19;100540.09;7400265;19;20037;-65
2023/08/28 08:53:06;;;;;;;3.30;1.33;;;;;;;17.16;69.25;100540.63;7397724;19;20503;-68
2023/08/28 08:55:42;;;;;;;3.28;1.27;;;;;;;17.19;68.78;100541.31;7397476;19;20010;-67
2023/08/28 08:58:15;;;;;;;2.70;1.00;;;;;;;17.20;68.27;100544.81;7397892;19;20011;-66
2023/08/28 09:00:45;;;;;;;4.28;1.23;;;;;;;17.19;68.27;100546.63;7394808;19;20011;-67
2023/08/28 09:03:18;;;;;;;4.47;2.10;;;;;;;17.20;68.54;100552.78;7396790;19;20403;-67
2023/08/28 09:05:49;;;;;;;5.07;1.77;;;;;;;17.22;68.12;100556.22;7395893;19;20368;-67
2023/08/28 09:08:18;;;;;;;3.70;1.83;;;;;;;17.21;68.57;100558.00;7395481;19;20033;-67
2023/08/28 09:10:47;;;;;;;4.07;1.70;;;;;;;17.23;68.48;100566.72;7395810;19;20011;-68
2023/08/28 09:13:16;;;;;;;5.35;1.52;;;;;;;17.24;68.36;100563.13;7396148;19;20070;-67
2023/08/28 09:15:45;;;;;;;1.95;1.40;;;;;;;17.28;68.00;100565.66;7394958;19;20010;-67
2023/08/28 09:18:13;;;;;;;3.20;1.67;;;;;;;17.32;67.87;100564.53;7394040;19;20041;-67
2023/08/28 09:20:44;;;;;;;2.75;1.65;;;;;;;17.34;67.74;100566.16;7397005;19;20015;-67
2023/08/28 09:23:13;;;;;;;4.07;2.20;;;;;;;17.39;67.95;100571.25;7395863;19;20369;-67
2023/08/28 09:25:42;;;;;;;4.68;2.85;;;;;;;17.42;67.83;100561.31;7397449;19;20014;-67
2023/08/28 09:28:10;;;;;;;5.25;2.33;;;;;;;17.47;67.98;100570.81;7394950;19;20426;-66
2023/08/28 09:30:39;;;;;;;4.20;1.70;;;;;;;17.50;67.40;100570.66;7394965;19;20023;-67
2023/08/28 09:33:09;;;;;;;2.72;1.83;;;;;;;17.49;67.66;100577.75;7394621;19;20011;-67
2023/08/28 09:35:40;;;;;;;5.65;2.17;;;;;;;17.52;67.75;100587.34;7393833;19;20024;-66
2023/08/28 09:38:12;;;;;;;2.33;1.52;;;;;;;17.52;67.38;100595.31;7394085;19;20011;-66
2023/08/28 09:40:42;;;;;;;4.70;1.70;;;;;;;17.52;67.27;100597.97;7395281;19;20011;-66
2023/08/28 09:43:13;;;;;;;7.30;1.70;;;;;;;17.50;67.22;100595.41;7393844;19;20424;-66
2023/08/28 09:45:43;;;;;;;2.97;1.60;;;;;;;17.51;67.47;100597.09;7394498;19;20011;-66
2023/08/28 09:48:13;;;;;;;3.92;2.03;;;;;;;17.53;67.22;100594.38;7395533;19;20010;-65
2023/08/28 09:50:43;;;;;;;3.55;1.80;;;;;;;17.56;67.49;100596.84;7394297;19;20015;-65
2023/08/28 09:53:15;;;;;;;2.13;1.58;;;;;;;17.63;66.90;100597.38;7395566;19;20110;-66
2023/08/28 09:55:49;;;;;;;2.97;1.45;;;;;;;17.68;66.92;100598.84;7395676;19;20028;-65
2023/08/28 09:58:17;;;;;;;5.75;1.67;;;;;;;17.76;66.74;100595.78;7395638;19;20019;-65
2023/08/28 10:00:46;;;;;;;3.28;1.55;;;;;;;17.84;66.98;100596.19;7393960;19;20078;-68
2023/08/28 10:03:16;;;;;;;5.90;2.20;;;;;;;17.93;66.59;100594.84;7394548;19;20382;-67
2023/08/28 10:05:46;;;;;;;1.60;1.30;;;;;;;18.01;66.68;100594.47;7394244;19;20011;-67
2023/08/28 10:08:18;;;;;;;2.88;1.48;;;;;;;18.09;65.93;100591.41;7392507;19;20334;-64
2023/08/28 10:10:49;;;;;;;5.70;1.75;;;;;;;18.18;65.99;100597.03;7393634;19;20070;-67
2023/08/28 10:13:19;;;;;;;3.35;1.45;;;;;;;18.25;65.63;100589.59;7394074;19;20007;-67
2023/08/28 10:15:55;;;;;;;3.90;1.50;;;;;;;18.31;65.16;100583.06;7393390;19;20033;-65
2023/08/28 10:18:30;;;;;;;2.75;1.60;;;;;;;18.39;65.31;100579.03;7394876;19;20011;-66
2023/08/28 10:20:59;;;;;;;2.85;1.55;;;;;;;18.50;64.52;100570.44;7394892;19;20027;-65
2023/08/28 10:23:31;;;;;;;3.08;1.00;;;;;;;18.61;64.10;100575.13;7392801;19;20026;-66
2023/08/28 10:26:01;;;;;;;1.42;1.10;;;;;;;18.69;64.08;100572.03;7392747;19;20078;-64
2023/08/28 10:28:31;;;;;;;8.55;1.13;;;;;;;18.77;63.29;100561.81;7393689;19;20011;-67
2023/08/28 10:31:01;;;;;;;1.83;1.05;;;;;;;18.82;63.06;100559.72;7394656;19;20027;-66
2023/08/28 10:33:31;;;;;;;2.03;1.20;;;;;;;18.83;62.29;100561.44;7393780;19;20031;-66
2023/08/28 10:36:02;;;;;;;2.47;0.88;;;;;;;18.80;62.15;100550.13;7393213;19;20021;-66
2023/08/28 10:38:35;;;;;;;3.92;1.33;;;;;;;18.89;62.14;100553.13;7394555;19;20038;-66
2023/08/28 10:41:05;;;;;;;2.83;1.13;;;;;;;18.94;61.46;100546.69;7392720;19;20014;-66
2023/08/28 10:43:35;;;;;;;4.40;2.03;;;;;;;18.97;61.41;100539.38;7393845;19;20033;-66
2023/08/28 10:46:04;;;;;;;3.42;1.10;;;;;;;19.04;61.34;100538.09;7393100;19;20023;-67
2023/08/28 10:48:33;;;;;;;3.13;1.08;;;;;;;19.05;60.55;100529.13;7394373;19;20021;-67
2023/08/28 10:51:02;;;;;;;3.00;1.55;;;;;;;19.03;60.45;100524.84;7394018;19;20083;-68
2023/08/28 10:53:36;;;;;;;2.92;1.23;;;;;;;19.02;60.29;100524.00;7391676;19;20031;-67
2023/08/28 10:56:05;;;;;;;;;;;;;;;19.02;60.20;100536.47;7392220;19;20503;-67
2023/08/28 10:58:35;;;;;;;1.23;0.90;;;;;;;19.05;59.99;100545.09;7391457;19;19918;-68
2023/08/28 11:01:14;;;;;;;2.20;1.27;;;;;;;19.04;59.31;100543.41;7393737;19;20082;-69
2023/08/28 11:03:59;;;;;;;1.08;0.90;;;;;;;19.04;59.45;100546.06;7392001;19;20021;-68
2023/08/28 11:06:39;;;;;;;6.07;1.38;;;;;;;19.10;60.08;100547.47;7391359;19;20537;-68
2023/08/28 11:09:40;;;;;;;2.53;1.33;;;;;;;19.18;59.40;100549.66;7392548;19;20366;-68
2023/08/28 11:12:24;;;;;;;5.60;1.13;;;;;;;19.23;58.90;100544.91;7392229;19;20011;-68
2023/08/28 11:15:01;;;;;;;1.75;0.77;;;;;;;19.25;58.92;100545.69;7390917;19;20050;-68
2023/08/28 11:17:33;;;;;;;5.13;1.10;;;;;;;19.26;57.69;100544.75;7392084;19;20027;-69
2023/08/28 11:20:12;;;;;;;5.43;1.17;;;;;;;19.28;58.03;100544.63;7393200;19;20028;-70
2023/08/28 11:22:42;;;;;;;4.38;0.80;;;;;;;19.29;58.63;100541.88;7392072;19;20011;-67
2023/08/28 11:25:14;;;;;;;3.25;0.90;;;;;;;19.33;58.04;100545.22;7391649;19;20069;-72
2023/08/28 11:27:49;;;;;;;2.97;0.98;;;;;;;19.40;57.77;100559.84;7393566;19;20027;-70
2023/08/28 11:30:20;;;;;;;1.85;0.70;;;;;;;19.48;57.91;100554.06;7393964;19;20083;-72
2023/08/28 11:32:51;;;;;;;1.50;0.60;;;;;;;19.50;57.23;100554.81;7393063;19;20026;-69
2023/08/28 11:35:20;;;;;;;1.23;0.60;;;;;;;19.43;56.73;100556.16;7393509;19;20019;-75
2023/08/28 11:37:50;;;;;;;2.63;1.23;;;;;;;19.42;56.99;100559.75;7389964;19;20021;-73